createdAt,value
2019-03-13T00:01:37.161Z,3.60
2019-03-13T00:04:06.541Z,3.07
2019-03-13T00:06:35.979Z,2.83
2019-03-13T00:09:09.411Z,2.97
2019-03-13T00:11:39.014Z,2.20
2019-03-13T00:14:08.474Z,2.90
2019-03-13T00:16:37.981Z,2.80
2019-03-13T00:19:07.430Z,2.47
2019-03-13T00:21:36.833Z,2.27
2019-03-13T00:24:06.361Z,2.70
2019-03-13T00:26:35.759Z,3.57
2019-03-13T00:29:05.230Z,3.17
2019-03-13T00:31:34.688Z,3.30
2019-03-13T00:34:04.064Z,3.70
2019-03-13T00:36:33.458Z,3.97
2019-03-13T00:39:03.959Z,4.50
2019-03-13T00:41:33.335Z,7.87
2019-03-13T00:44:02.718Z,5.23
2019-03-13T00:46:32.190Z,2.80
2019-03-13T00:49:01.573Z,2.93
2019-03-13T00:51:31.031Z,3.10
2019-03-13T00:54:00.405Z,3.23
2019-03-13T00:56:29.781Z,3.30
2019-03-13T00:58:59.158Z,2.70
2019-03-13T01:01:50.631Z,3.07
2019-03-13T01:04:27.216Z,2.97
2019-03-13T01:06:59.962Z,3.10
2019-03-13T01:09:29.788Z,3.67
2019-03-13T01:11:59.162Z,3.60
2019-03-13T01:14:28.530Z,4.47
2019-03-13T01:16:57.913Z,3.47
2019-03-13T01:19:27.288Z,3.83
2019-03-13T01:21:56.654Z,4.17
2019-03-13T01:24:26.109Z,4.10
2019-03-13T01:26:55.554Z,3.83
2019-03-13T01:29:25.011Z,3.97
2019-03-13T01:32:07.452Z,3.73
2019-03-13T01:34:55.862Z,3.60
2019-03-13T01:37:25.269Z,3.23
2019-03-13T01:39:54.688Z,3.63
2019-03-13T01:42:24.071Z,3.60
2019-03-13T01:44:53.514Z,3.37
2019-03-13T01:47:22.896Z,3.40
2019-03-13T01:49:52.265Z,3.17
2019-03-13T01:52:21.621Z,3.30
2019-03-13T01:54:50.977Z,3.03
2019-03-13T01:57:20.381Z,3.00
2019-03-13T01:59:49.728Z,3.60
2019-03-13T02:02:19.169Z,3.00
2019-03-13T02:04:48.591Z,2.80
2019-03-13T02:07:18.036Z,3.20
2019-03-13T02:09:47.398Z,3.17
2019-03-13T02:12:16.775Z,3.07
2019-03-13T02:14:46.129Z,3.10
2019-03-13T02:17:15.480Z,3.00
2019-03-13T02:19:44.900Z,2.47
2019-03-13T02:22:14.243Z,3.00
2019-03-13T02:24:43.587Z,2.80
2019-03-13T02:27:12.948Z,2.70
2019-03-13T02:29:42.292Z,3.17
2019-03-13T02:32:11.630Z,2.73
2019-03-13T02:34:40.971Z,2.63
2019-03-13T02:37:10.355Z,2.53
2019-03-13T02:39:39.678Z,1.93
2019-03-13T02:42:09.026Z,2.27
2019-03-13T02:44:38.375Z,2.37
2019-03-13T02:47:07.720Z,2.40
2019-03-13T02:49:37.059Z,2.07
2019-03-13T02:52:06.557Z,1.90
2019-03-13T02:54:35.920Z,1.60
2019-03-13T02:57:05.261Z,1.90
2019-03-13T02:59:34.633Z,1.67
2019-03-13T03:02:09.983Z,1.80
2019-03-13T03:04:39.315Z,1.67
2019-03-13T03:07:12.658Z,1.27
2019-03-13T03:09:39.774Z,1.30
2019-03-13T03:12:09.162Z,0.90
2019-03-13T03:14:38.484Z,1.00
2019-03-13T03:17:07.837Z,1.00
2019-03-13T03:19:37.212Z,1.00
2019-03-13T03:22:06.565Z,0.90
2019-03-13T03:24:35.936Z,0.90
2019-03-13T03:27:05.295Z,1.00
2019-03-13T03:29:38.619Z,1.00
2019-03-13T03:32:05.883Z,0.80
2019-03-13T03:34:35.299Z,0.83
2019-03-13T03:37:04.690Z,0.90
2019-03-13T03:39:34.057Z,0.90
2019-03-13T03:42:03.698Z,1.10
2019-03-13T03:44:33.109Z,1.20
2019-03-13T03:47:02.467Z,0.90
2019-03-13T03:49:31.825Z,1.00
2019-03-13T03:52:01.185Z,1.00
2019-03-13T03:54:30.597Z,1.10
2019-03-13T03:57:00.015Z,1.07
2019-03-13T03:59:29.367Z,1.00
2019-03-13T04:01:58.719Z,1.20
2019-03-13T04:04:28.092Z,1.30
2019-03-13T04:06:57.427Z,1.10
2019-03-13T04:09:26.793Z,1.27
2019-03-13T04:11:56.130Z,1.10
2019-03-13T04:14:25.492Z,1.20
2019-03-13T04:16:54.904Z,1.33
2019-03-13T04:19:24.337Z,1.20
2019-03-13T04:21:53.709Z,1.10
2019-03-13T04:24:23.050Z,1.30
2019-03-13T04:26:52.443Z,1.00
2019-03-13T04:29:21.813Z,1.20
2019-03-13T04:31:51.161Z,1.33
2019-03-13T04:34:20.534Z,1.20
2019-03-13T04:36:49.964Z,1.20
2019-03-13T04:39:19.362Z,1.10
2019-03-13T04:41:48.694Z,1.30
2019-03-13T04:44:18.038Z,0.90
2019-03-13T04:46:47.407Z,1.30
2019-03-13T04:49:16.737Z,1.20
2019-03-13T04:51:46.157Z,1.10
2019-03-13T04:54:15.568Z,1.03
2019-03-13T04:56:44.975Z,0.97
2019-03-13T04:59:14.325Z,1.20
2019-03-13T05:01:43.657Z,1.10
2019-03-13T05:04:13.012Z,1.30
2019-03-13T05:06:42.330Z,1.10
2019-03-13T05:09:14.357Z,1.10
2019-03-13T05:11:43.674Z,1.10
2019-03-13T05:14:13.083Z,1.00
2019-03-13T05:16:42.420Z,0.97
2019-03-13T05:19:11.806Z,1.20
2019-03-13T05:21:41.157Z,1.30
2019-03-13T05:24:10.526Z,1.10
2019-03-13T05:26:39.895Z,1.50
2019-03-13T05:29:09.341Z,1.20
2019-03-13T05:31:38.718Z,1.30
2019-03-13T05:34:08.074Z,1.30
2019-03-13T05:36:37.450Z,1.20
2019-03-13T05:39:07.686Z,1.20
2019-03-13T05:41:37.044Z,1.30
2019-03-13T05:44:06.401Z,1.13
2019-03-13T05:46:35.735Z,1.30
2019-03-13T05:49:05.121Z,1.30
2019-03-13T05:51:34.477Z,1.33
2019-03-13T05:54:03.977Z,1.40
2019-03-13T05:56:33.469Z,1.40
2019-03-13T05:59:02.967Z,1.50
2019-03-13T06:01:32.526Z,1.40
2019-03-13T06:04:02.044Z,1.50
2019-03-13T06:06:31.538Z,1.70
2019-03-13T06:09:01.035Z,1.60
2019-03-13T06:11:30.536Z,1.53
2019-03-13T06:14:00.020Z,1.50
2019-03-13T06:16:29.850Z,1.80
2019-03-13T06:18:59.422Z,1.47
2019-03-13T06:21:28.923Z,1.27
2019-03-13T06:23:58.416Z,1.60
2019-03-13T06:26:27.907Z,1.67
2019-03-13T06:28:57.387Z,1.50
2019-03-13T06:31:26.866Z,1.23
2019-03-13T06:33:56.462Z,1.17
2019-03-13T06:36:26.044Z,1.27
2019-03-13T06:38:55.527Z,1.50
2019-03-13T06:41:25.012Z,1.50
2019-03-13T06:43:54.507Z,1.50
2019-03-13T06:46:24.016Z,1.47
2019-03-13T06:48:53.559Z,1.70
2019-03-13T06:51:23.057Z,1.70
2019-03-13T06:53:52.537Z,1.50
2019-03-13T06:56:22.090Z,1.80
2019-03-13T06:59:18.010Z,1.60
2019-03-13T07:01:54.083Z,1.50
2019-03-13T07:04:51.675Z,1.50
2019-03-13T07:07:39.053Z,1.77
2019-03-13T07:10:31.201Z,1.70
2019-03-13T07:13:16.656Z,1.50
2019-03-13T07:15:51.141Z,1.70
2019-03-13T07:18:35.270Z,1.50
2019-03-13T07:21:29.993Z,2.00
2019-03-13T07:24:07.915Z,1.70
2019-03-13T07:26:56.391Z,1.70
2019-03-13T07:29:41.817Z,1.60
2019-03-13T07:32:29.149Z,1.20
2019-03-13T07:35:20.796Z,1.47
2019-03-13T07:38:21.380Z,1.80
2019-03-13T07:41:08.826Z,1.60
2019-03-13T07:44:03.026Z,1.50
2019-03-13T07:47:06.702Z,1.90
2019-03-13T07:49:45.702Z,1.70
2019-03-13T07:52:40.487Z,1.53
2019-03-13T07:55:29.105Z,1.70
2019-03-13T07:58:16.505Z,1.50
2019-03-13T08:01:03.977Z,1.57
2019-03-13T08:03:55.296Z,1.80
2019-03-13T08:06:39.041Z,1.30
2019-03-13T08:09:36.899Z,1.60
2019-03-13T08:12:31.315Z,1.50
2019-03-13T08:15:28.988Z,1.50
2019-03-13T08:18:17.811Z,1.60
2019-03-13T08:21:18.175Z,1.53
2019-03-13T08:24:16.168Z,1.70
2019-03-13T08:27:04.700Z,1.37
2019-03-13T08:30:05.236Z,1.50
2019-03-13T08:32:56.598Z,1.37
2019-03-13T08:35:38.218Z,1.43
2019-03-13T08:38:30.003Z,1.30
2019-03-13T08:41:05.377Z,1.30
2019-03-13T08:43:40.630Z,1.30
2019-03-13T08:46:16.382Z,1.33
2019-03-13T08:49:03.730Z,1.60
2019-03-13T08:52:01.386Z,1.30
2019-03-13T08:54:48.293Z,1.60
2019-03-13T08:57:37.570Z,1.50
2019-03-13T09:00:25.682Z,1.30
2019-03-13T09:03:32.281Z,1.30
2019-03-13T09:06:26.923Z,1.40
2019-03-13T09:09:12.861Z,1.30
2019-03-13T09:12:04.309Z,1.10
2019-03-13T09:14:55.907Z,1.40
2019-03-13T09:17:42.602Z,1.10
2019-03-13T09:20:32.805Z,1.20
2019-03-13T09:23:39.620Z,1.30
2019-03-13T09:26:28.172Z,1.30
2019-03-13T09:29:05.207Z,1.20
2019-03-13T09:31:52.665Z,1.20
2019-03-13T09:34:45.653Z,1.30
2019-03-13T09:37:24.766Z,1.40
2019-03-13T09:40:11.956Z,1.30
2019-03-13T09:42:59.788Z,1.60
2019-03-13T09:45:51.100Z,1.50
2019-03-13T09:48:35.013Z,1.03
2019-03-13T09:54:12.469Z,1.10
2019-03-13T09:57:12.952Z,1.30
2019-03-13T09:59:52.222Z,1.40
2019-03-13T10:02:36.269Z,1.57
2019-03-13T10:05:19.382Z,1.13
2019-03-13T10:08:07.844Z,1.27
2019-03-13T10:10:50.350Z,1.10
2019-03-13T10:13:34.790Z,1.30
2019-03-13T10:16:23.750Z,1.67
2019-03-13T10:19:17.492Z,1.30
2019-03-13T10:22:08.906Z,1.23
2019-03-13T10:25:00.427Z,1.17
2019-03-13T10:28:07.265Z,1.30
2019-03-13T10:30:55.932Z,1.50
2019-03-13T10:33:36.680Z,1.10
2019-03-13T10:36:24.101Z,1.33
2019-03-13T10:39:10.640Z,1.30
2019-03-13T10:41:51.469Z,1.60
2019-03-13T10:44:35.627Z,1.60
2019-03-13T10:47:14.488Z,1.23
2019-03-13T10:50:05.429Z,1.40
2019-03-13T10:52:40.648Z,1.40
2019-03-13T10:55:44.806Z,1.13
2019-03-13T10:58:23.427Z,1.20
2019-03-13T11:01:14.753Z,1.50
2019-03-13T11:03:52.445Z,1.30
2019-03-13T11:06:54.406Z,1.17
2019-03-13T11:09:33.090Z,1.10
2019-03-13T11:12:20.217Z,1.37
2019-03-13T11:15:10.008Z,1.20
2019-03-13T11:18:01.300Z,1.20
2019-03-13T11:20:39.406Z,1.20
2019-03-13T11:23:18.638Z,1.10
2019-03-13T11:25:56.992Z,1.10
2019-03-13T11:28:42.723Z,1.27
2019-03-13T11:31:29.988Z,1.37
2019-03-13T11:34:18.893Z,1.33
2019-03-13T11:37:16.250Z,1.10
2019-03-13T11:40:03.520Z,1.30
2019-03-13T11:42:52.011Z,1.50
2019-03-13T11:45:43.336Z,1.10
2019-03-13T11:48:27.109Z,1.10
2019-03-13T11:51:14.936Z,1.20
2019-03-13T11:54:11.651Z,1.33
2019-03-13T11:57:04.279Z,1.30
2019-03-13T11:59:51.449Z,1.50
2019-03-13T12:02:40.011Z,1.33
2019-03-13T12:05:17.053Z,1.50
2019-03-13T12:08:05.596Z,1.10
2019-03-13T12:10:46.993Z,1.33
2019-03-13T12:13:47.873Z,1.90
2019-03-13T12:16:31.793Z,1.20
2019-03-13T12:19:07.033Z,1.17
2019-03-13T12:21:43.808Z,1.30
2019-03-13T12:24:26.444Z,1.30
2019-03-13T12:27:06.040Z,1.30
2019-03-13T12:29:53.212Z,1.40
2019-03-13T12:32:44.855Z,1.20
2019-03-13T12:35:34.038Z,1.40
2019-03-13T12:38:19.110Z,1.10
2019-03-13T12:41:06.250Z,1.10
2019-03-13T12:43:59.448Z,1.20
2019-03-13T12:46:46.839Z,1.10
2019-03-13T12:49:22.385Z,1.20
2019-03-13T12:52:23.379Z,1.20
2019-03-13T12:55:27.074Z,1.40
2019-03-13T12:58:27.643Z,1.27
2019-03-13T13:01:16.141Z,1.30
2019-03-13T13:04:03.476Z,1.30
2019-03-13T13:06:46.223Z,1.53
2019-03-13T13:09:34.697Z,1.30
2019-03-13T13:12:35.662Z,1.30
2019-03-13T13:15:27.767Z,1.20
2019-03-13T13:18:16.492Z,1.60
2019-03-13T13:20:45.995Z,1.30
2019-03-13T13:23:15.528Z,1.30
2019-03-13T13:25:45.038Z,1.30
2019-03-13T13:28:14.506Z,1.00
2019-03-13T13:30:44.073Z,1.60
2019-03-13T13:33:13.753Z,1.50
2019-03-13T13:35:43.366Z,1.20
2019-03-13T13:38:12.936Z,1.33
2019-03-13T13:40:42.442Z,1.30
2019-03-13T13:43:12.043Z,1.60
2019-03-13T13:45:51.554Z,1.20
2019-03-13T13:48:21.264Z,1.67
2019-03-13T13:50:50.871Z,1.47
2019-03-13T13:53:20.421Z,1.43
2019-03-13T13:55:50.001Z,1.17
2019-03-13T13:58:19.616Z,1.63
2019-03-13T14:00:49.242Z,1.37
2019-03-13T14:03:18.791Z,1.37
2019-03-13T14:05:48.321Z,1.30
2019-03-13T14:08:17.886Z,1.70
2019-03-13T14:10:47.476Z,1.70
2019-03-13T14:13:17.108Z,1.27
2019-03-13T14:15:46.736Z,1.30
2019-03-13T14:18:16.365Z,1.13
2019-03-13T14:20:46.085Z,1.70
2019-03-13T14:23:15.673Z,1.80
2019-03-13T14:25:45.390Z,1.83
2019-03-13T14:28:14.946Z,1.43
2019-03-13T14:30:44.572Z,1.70
2019-03-13T14:33:14.344Z,1.63
2019-03-13T14:35:46.398Z,1.40
2019-03-13T14:38:15.368Z,1.60
2019-03-13T14:40:45.093Z,2.00
2019-03-13T14:43:14.777Z,1.60
2019-03-13T14:45:44.394Z,1.50
2019-03-13T14:48:14.012Z,1.63
2019-03-13T14:50:43.710Z,1.40
2019-03-13T14:53:13.255Z,1.80
2019-03-13T14:55:42.945Z,1.60
2019-03-13T14:58:12.567Z,1.90
2019-03-13T15:00:42.287Z,1.37
2019-03-13T15:03:11.932Z,1.57
2019-03-13T15:05:41.674Z,1.70
2019-03-13T15:08:11.330Z,1.57
2019-03-13T15:10:40.852Z,2.00
2019-03-13T15:13:10.482Z,1.80
2019-03-13T15:15:40.023Z,1.30
2019-03-13T15:18:09.621Z,1.60
2019-03-13T15:20:39.382Z,1.70
2019-03-13T15:23:08.988Z,1.40
2019-03-13T15:25:38.658Z,1.50
2019-03-13T15:28:08.294Z,1.60
2019-03-13T15:30:38.133Z,1.90
2019-03-13T15:33:07.957Z,1.77
2019-03-13T15:35:37.646Z,1.50
2019-03-13T15:38:07.460Z,1.67
2019-03-13T15:40:37.012Z,1.30
2019-03-13T15:43:06.780Z,1.43
2019-03-13T15:45:36.980Z,2.00
2019-03-13T15:48:07.046Z,1.87
2019-03-13T15:50:36.764Z,2.20
2019-03-13T15:53:06.525Z,1.90
2019-03-13T15:55:36.353Z,2.17
2019-03-13T15:58:06.456Z,1.53
2019-03-13T16:00:36.470Z,1.80
2019-03-13T16:03:06.269Z,2.67
2019-03-13T16:05:35.998Z,2.23
2019-03-13T16:08:06.013Z,1.80
2019-03-13T16:10:35.732Z,1.73
2019-03-13T16:13:06.114Z,2.20
2019-03-13T16:15:37.008Z,2.17
2019-03-13T16:18:06.733Z,2.20
2019-03-13T16:20:36.666Z,1.90
2019-03-13T16:23:07.091Z,2.03
2019-03-13T16:25:36.814Z,1.50
2019-03-13T16:28:06.855Z,1.73
2019-03-13T16:30:39.124Z,1.60
2019-03-13T16:33:08.743Z,1.60
2019-03-13T16:35:38.421Z,1.67
2019-03-13T16:38:08.148Z,1.90
2019-03-13T16:40:37.873Z,1.63
2019-03-13T16:43:07.511Z,1.90
2019-03-13T16:45:37.107Z,1.77
2019-03-13T16:48:06.821Z,1.73
2019-03-13T16:50:36.453Z,1.47
2019-03-13T16:53:06.250Z,1.30
2019-03-13T16:55:35.834Z,1.60
2019-03-13T16:58:05.605Z,1.50
2019-03-13T17:00:35.548Z,2.27
2019-03-13T17:03:05.359Z,1.63
2019-03-13T17:05:35.002Z,1.60
2019-03-13T17:08:04.617Z,1.70
2019-03-13T17:10:34.219Z,1.50
2019-03-13T17:13:05.455Z,1.80
2019-03-13T17:15:35.450Z,1.67
2019-03-13T17:18:05.235Z,1.80
2019-03-13T17:20:34.935Z,1.70
2019-03-13T17:23:04.620Z,1.60
2019-03-13T17:25:34.352Z,1.60
2019-03-13T17:28:03.959Z,1.93
2019-03-13T17:30:33.803Z,2.07
2019-03-13T17:33:03.475Z,2.00
2019-03-13T17:35:33.072Z,1.63
2019-03-13T17:38:02.733Z,1.50
2019-03-13T17:40:32.919Z,1.90
2019-03-13T17:43:02.628Z,2.10
2019-03-13T17:45:32.354Z,2.07
2019-03-13T17:48:02.094Z,2.00
2019-03-13T17:50:31.814Z,2.20
2019-03-13T17:53:01.373Z,1.87
2019-03-13T17:55:31.256Z,2.17
2019-03-13T17:58:00.844Z,2.30
2019-03-13T18:00:36.477Z,2.17
2019-03-13T18:03:06.180Z,2.33
2019-03-13T18:05:35.786Z,2.00
2019-03-13T18:08:05.511Z,2.10
2019-03-13T18:10:35.123Z,2.17
2019-03-13T18:13:04.751Z,2.20
2019-03-13T18:15:34.383Z,2.17
2019-03-13T18:18:04.015Z,1.87
2019-03-13T18:20:33.723Z,2.50
2019-03-13T18:23:03.351Z,2.27
2019-03-13T18:25:33.183Z,1.90
2019-03-13T18:28:03.076Z,2.43
2019-03-13T18:30:33.284Z,2.00
2019-03-13T18:33:03.804Z,2.00
2019-03-13T18:35:34.991Z,2.20
2019-03-13T18:38:05.530Z,2.20
2019-03-13T18:40:35.245Z,2.13
2019-03-13T18:43:05.330Z,1.80
2019-03-13T18:45:36.306Z,1.83
2019-03-13T18:48:06.086Z,1.80
2019-03-13T18:50:35.860Z,1.80
2019-03-13T18:53:05.548Z,2.00
2019-03-13T18:55:35.152Z,1.80
2019-03-13T18:58:05.292Z,2.20
2019-03-13T19:00:35.078Z,1.93
2019-03-13T19:03:07.969Z,1.90
2019-03-13T19:05:37.947Z,2.03
2019-03-13T19:08:07.990Z,2.30
2019-03-13T19:10:37.987Z,2.00
2019-03-13T19:13:07.619Z,1.80
2019-03-13T19:15:40.134Z,2.00
2019-03-13T19:18:11.201Z,2.03
2019-03-13T19:20:41.189Z,1.93
2019-03-13T19:23:13.986Z,1.97
2019-03-13T19:25:42.115Z,2.03
2019-03-13T19:28:11.952Z,2.43
2019-03-13T19:30:41.818Z,1.80
2019-03-13T19:33:11.994Z,1.83
2019-03-13T19:35:42.721Z,2.03
2019-03-13T19:38:12.453Z,2.10
2019-03-13T19:40:42.038Z,2.03
2019-03-13T19:43:11.688Z,1.93
2019-03-13T19:45:43.358Z,1.80
2019-03-13T19:48:13.238Z,1.80
2019-03-13T19:50:42.861Z,1.73
2019-03-13T19:53:12.568Z,1.90
2019-03-13T19:55:42.196Z,2.33
2019-03-13T19:58:11.855Z,2.57
2019-03-13T20:00:41.587Z,1.73
2019-03-13T20:03:11.308Z,2.10
2019-03-13T20:05:45.953Z,2.00
2019-03-13T20:08:13.850Z,1.70
2019-03-13T20:10:43.929Z,2.00
2019-03-13T20:13:14.376Z,2.27
2019-03-13T20:15:44.039Z,2.30
2019-03-13T20:18:13.763Z,2.57
2019-03-13T20:20:43.527Z,1.97
2019-03-13T20:23:13.463Z,2.00
2019-03-13T20:25:43.178Z,2.40
2019-03-13T20:28:12.757Z,2.13
2019-03-13T20:30:42.635Z,1.90
2019-03-13T20:33:12.246Z,2.10
2019-03-13T20:35:44.239Z,2.33
2019-03-13T20:38:13.821Z,2.13
2019-03-13T20:40:43.493Z,2.20
2019-03-13T20:43:13.341Z,2.13
2019-03-13T20:45:42.900Z,2.27
2019-03-13T20:48:13.872Z,2.10
2019-03-13T20:50:43.572Z,1.60
2019-03-13T20:53:13.151Z,2.40
2019-03-13T20:55:42.700Z,1.70
2019-03-13T20:58:12.358Z,2.73
2019-03-13T21:00:42.215Z,1.67
2019-03-13T21:03:13.670Z,2.33
2019-03-13T21:05:43.323Z,1.97
2019-03-13T21:08:13.156Z,2.50
2019-03-13T21:10:43.090Z,1.80
2019-03-13T21:13:12.617Z,1.87
2019-03-13T21:15:43.785Z,2.30
2019-03-13T21:18:13.829Z,1.70
2019-03-13T21:20:43.595Z,2.40
2019-03-13T21:23:13.149Z,1.90
2019-03-13T21:25:42.716Z,2.00
2019-03-13T21:28:12.756Z,2.00
2019-03-13T21:30:42.406Z,2.00
2019-03-13T21:33:12.020Z,1.90
2019-03-13T21:35:41.639Z,2.23
2019-03-13T21:38:13.059Z,1.93
2019-03-13T21:40:42.478Z,2.20
2019-03-13T21:43:12.096Z,2.03
2019-03-13T21:45:41.874Z,1.70
2019-03-13T21:48:11.531Z,1.93
2019-03-13T21:50:41.141Z,2.03
2019-03-13T21:53:10.733Z,2.27
2019-03-13T21:55:40.406Z,2.40
2019-03-13T21:58:10.008Z,1.93
2019-03-13T22:00:39.650Z,1.70
2019-03-13T22:03:09.157Z,1.80
2019-03-13T22:05:38.815Z,1.67
2019-03-13T22:08:08.481Z,1.90
2019-03-13T22:10:38.068Z,2.63
2019-03-13T22:13:07.775Z,1.83
2019-03-13T22:15:37.412Z,1.83
2019-03-13T22:18:07.298Z,2.10
2019-03-13T22:20:36.912Z,1.80
2019-03-13T22:23:06.516Z,2.17
2019-03-13T22:25:35.929Z,1.80
2019-03-13T22:28:05.350Z,2.20
2019-03-13T22:30:34.723Z,2.30
2019-03-13T22:33:04.201Z,2.10
2019-03-13T22:35:33.658Z,2.00
2019-03-13T22:38:03.132Z,1.90
2019-03-13T22:40:32.563Z,2.50
2019-03-13T22:43:01.894Z,2.17
2019-03-13T22:45:31.233Z,2.23
2019-03-13T22:48:00.685Z,1.87
2019-03-13T22:50:30.053Z,2.13
2019-03-13T22:52:59.387Z,2.30
2019-03-13T22:55:28.715Z,1.43
2019-03-13T22:57:58.120Z,1.60
2019-03-13T23:00:47.262Z,1.83
2019-03-13T23:03:16.751Z,2.10
2019-03-13T23:05:46.123Z,2.17
2019-03-13T23:08:15.524Z,2.10
2019-03-13T23:10:45.423Z,2.50
2019-03-13T23:13:17.246Z,2.20
2019-03-13T23:15:45.963Z,2.30
2019-03-13T23:18:18.023Z,2.20
2019-03-13T23:20:46.407Z,2.47
2019-03-13T23:23:15.738Z,1.97
2019-03-13T23:25:45.318Z,2.10
2019-03-13T23:28:14.721Z,2.37
2019-03-13T23:30:44.301Z,2.30
2019-03-13T23:33:13.620Z,2.63
2019-03-13T23:35:43.016Z,2.30
2019-03-13T23:38:12.357Z,2.17
2019-03-13T23:40:41.679Z,2.63
2019-03-13T23:43:11.128Z,2.53
2019-03-13T23:45:40.457Z,2.67
2019-03-13T23:48:09.789Z,2.20
2019-03-13T23:50:39.129Z,2.27
2019-03-13T23:53:08.471Z,3.37
2019-03-13T23:55:37.869Z,2.80
2019-03-13T23:58:07.209Z,2.93
